Welcome, Guest. Please login or register.
Did you miss your activation email?

Username: Password:
Outdoor Wood Furnace Info - Statistics Center
General Statistics
Total Members: 8206
Total Posts: 76364
Total Topics: 7167
Total Categories: 6
Users Online: 16
Most Online: 165 - May 22, 2013, 12:42:02 PM
Online Today: 27
Average registrations per day: 6.88
Average posts per day: 22.31
Average topics per day: 2.58
Total Boards: 50
Latest Member: CRSJHorne
Average online per day: 24.94
Male to Female Ratio: 89.8:1
Top 10 Posters Top 10 Boards
mlappin 3846
Scott7m 3740
RSI 2859
willieG 1852
Roger2561 1607
hondaracer2oo4 1421
coolidge 1400
atvalaska 1278
MattyNH 1270
caper 1181
General Outdoor Furnace Discussion 30285
Plumbing 7383
Central Boiler 4646
General Discussion 4343
HeatMaster 3868
Portage & Main 3683
Fire Wood 3234
Home Made 2485
Equipment 2251
Electronics 2170
Top 10 Topics (by Replies) Top 10 Topics (by Views)
new heatmor and having huge issues 491
our wood stoves are horrible but epa thinks this is fine 344
Gasification wood boiler build 303
Almost 172
Wood Consumption vs. Application 144
TYPE of CHAIN SAWS USED 138
ProFab has some issues! 130
Ridgewood stoves 124
Global warming, climate change? Article 124
I'm impressed 123
Synergy Boilers? 579738
HELP! I hate my SHAVER! 467199
TAKE A STAND AGAINST MIDWEST (SYNERGY) BOILERS 446415
Synergy Boilers 98626
Gasification wood boiler build 59989
new heatmor and having huge issues 35421
Truth about Wood Doctor by president 31064
My homemade/modified forced air wood furnace 28218
Suggested Water Temperature on Boiler 28180
Used Hardy Stove info 24459
Top Topic Starters Most Time Online
coolidge 333
Roger2561 219
mlappin 108
slimjim 107
Scott7m 102
d5knapp 90
userdk 70
AirForcePOL 66
hondaracer2oo4 60
heat550 55
slimjim 89d 20h 18m
willieG 89d 16h 0m
RSI 46d 20h 16m
mlappin 36d 21h 55m
Scott7m 35d 21h 14m
koutsman 29d 14h 29m
MD20/20 26d 14h 52m
sceptre74 24d 20h 54m
CountryBoyJohn 21d 1h 58m
Roger2561 20d 16h 48m
Forum History (using forum time offset)
Yearly Summary New Topics New Posts New Members Most Online
* 2018 195 2257 2031 54
* 2017 597 7391 3268 65
December 2017 70 940 259 42
November 2017 77 940 272 40
October 2017 66 673 305 48
September 2017 40 581 253 42
August 2017 50 619 275 31
July 2017 16 164 329 33
June 2017 28 227 264 54
May 2017 30 407 291 45
2017-05-01 2 15 8 20
2017-05-02 1 9 5 26
2017-05-03 0 15 8 28
2017-05-04 2 15 9 20
2017-05-05 2 23 13 45
2017-05-06 0 17 3 26
2017-05-07 0 11 8 40
2017-05-08 2 25 8 25
2017-05-09 1 14 9 21
2017-05-10 0 10 8 32
2017-05-11 0 7 5 40
2017-05-12 1 15 7 33
2017-05-13 0 20 9 29
2017-05-14 1 8 5 34
2017-05-15 0 13 18 28
2017-05-16 0 8 10 22
2017-05-17 3 10 9 23
2017-05-18 2 21 12 30
2017-05-19 1 18 16 20
2017-05-20 1 9 10 24
2017-05-21 1 11 12 27
2017-05-22 0 23 17 25
2017-05-23 2 13 12 21
2017-05-24 2 6 10 23
2017-05-25 1 21 5 22
2017-05-26 0 10 6 21
2017-05-27 1 8 12 20
2017-05-28 0 9 7 24
2017-05-29 0 10 6 19
2017-05-30 1 7 11 28
2017-05-31 3 6 13 19
April 2017 40 748 290 60
March 2017 46 601 306 49
February 2017 43 569 241 65
January 2017 91 922 183 53
* 2016 546 5025 3090 75
December 2016 75 786 262 49
2016-12-01 2 22 9 31
2016-12-02 1 12 11 29
2016-12-03 1 11 12 26
2016-12-04 3 17 14 49
2016-12-05 0 22 11 31
2016-12-06 4 22 10 30
2016-12-07 2 12 7 28
2016-12-08 5 38 8 30
2016-12-09 1 10 10 29
2016-12-10 5 31 1 30
2016-12-11 2 33 5 26
2016-12-12 3 28 8 34
2016-12-13 0 25 5 27
2016-12-14 1 11 8 30
2016-12-15 3 37 8 42
2016-12-16 0 18 5 25
2016-12-17 3 22 5 25
2016-12-18 3 23 6 31
2016-12-19 3 33 16 30
2016-12-20 5 61 13 29
2016-12-21 5 39 9 25
2016-12-22 1 25 11 27
2016-12-23 4 38 5 25
2016-12-24 2 20 8 26
2016-12-25 2 19 5 26
2016-12-26 1 10 12 27
2016-12-27 5 33 13 28
2016-12-28 1 37 5 33
2016-12-29 3 32 7 33
2016-12-30 2 24 7 28
2016-12-31 2 21 8 21
November 2016 55 512 251 75
October 2016 50 389 217 39
September 2016 43 244 237 27
August 2016 20 105 129 44
July 2016 14 75 126 53
June 2016 11 86 151 49
May 2016 22 164 179 39
April 2016 22 222 548 51
March 2016 43 454 576 68
February 2016 74 806 123 58
January 2016 117 1182 291 52
* 2015 1317 11279 9513 67
December 2015 106 910 2179 40
November 2015 236 968 2620 60
2015-11-01 2 38 27 38
2015-11-02 2 17 36 28
2015-11-03 3 32 38 24
2015-11-04 2 26 16 31
2015-11-05 4 26 9 27
2015-11-06 0 7 6 25
2015-11-07 5 20 6 28
2015-11-08 4 33 25 31
2015-11-09 7 30 73 30
2015-11-10 8 34 68 38
2015-11-11 7 30 68 33
2015-11-12 7 27 55 38
2015-11-13 4 21 78 31
2015-11-14 6 21 70 28
2015-11-15 8 24 79 34
2015-11-16 9 30 81 40
2015-11-17 33 69 96 37
2015-11-18 7 17 98 39
2015-11-19 9 29 101 56
2015-11-20 10 27 144 53
2015-11-21 10 22 131 37
2015-11-22 16 69 156 41
2015-11-23 10 34 127 38
2015-11-24 12 26 145 37
2015-11-25 12 41 123 32
2015-11-26 10 51 155 37
2015-11-27 7 16 149 60
2015-11-28 4 40 142 50
2015-11-29 12 57 157 58
2015-11-30 6 54 161 40
October 2015 169 843 906 46
September 2015 42 202 593 35
2015-09-01 3 27 11 27
2015-09-02 3 8 32 26
2015-09-03 3 9 30 26
2015-09-04 5 14 24 23
2015-09-05 1 8 28 24
2015-09-06 2 18 23 24
2015-09-07 2 5 18 24
2015-09-08 0 2 8 26
2015-09-10 0 2 16 28
2015-09-11 0 0 25 31
2015-09-12 0 1 20 32
2015-09-13 1 3 24 33
2015-09-14 0 5 21 35
2015-09-15 0 5 20 32
2015-09-16 1 5 12 26
2015-09-17 2 6 22 29
2015-09-18 0 10 26 25
2015-09-19 0 3 27 28
2015-09-20 2 2 30 26
2015-09-21 3 4 16 27
2015-09-22 1 4 20 27
2015-09-23 1 3 28 32
2015-09-24 1 2 18 26
2015-09-25 2 4 17 24
2015-09-26 0 7 14 35
2015-09-27 1 2 10 35
2015-09-28 1 8 4 30
2015-09-29 5 23 31 28
2015-09-30 2 12 18 29
August 2015 49 274 447 41
July 2015 35 353 449 53
June 2015 32 269 266 42
May 2015 66 519 364 46
2015-05-01 2 9 14 36
2015-05-02 1 1 8 31
2015-05-03 3 15 12 35
2015-05-04 4 22 16 34
2015-05-05 3 43 16 33
2015-05-06 0 16 16 33
2015-05-07 1 4 14 32
2015-05-08 3 19 15 28
2015-05-09 7 42 14 30
2015-05-10 1 20 8 35
2015-05-11 1 15 25 34
2015-05-12 1 12 8 32
2015-05-13 1 10 19 32
2015-05-14 0 16 8 46
2015-05-15 3 23 12 32
2015-05-16 2 27 5 30
2015-05-17 1 15 13 33
2015-05-18 2 13 13 31
2015-05-19 0 11 8 34
2015-05-20 2 20 8 29
2015-05-21 13 18 11 32
2015-05-22 0 8 19 30
2015-05-23 1 7 7 32
2015-05-24 0 6 10 30
2015-05-25 6 60 13 37
2015-05-26 2 15 10 34
2015-05-27 1 12 11 31
2015-05-28 0 8 13 33
2015-05-29 1 6 7 32
2015-05-30 2 12 6 30
2015-05-31 2 14 5 25
April 2015 92 795 418 39
March 2015 113 1670 400 46
February 2015 175 2072 445 56
January 2015 202 2404 426 67
2015-01-01 10 82 8 62
2015-01-02 5 89 8 51
2015-01-03 11 111 5 42
2015-01-04 7 49 7 48
2015-01-05 9 124 12 49
2015-01-06 11 127 12 49
2015-01-07 12 118 10 56
2015-01-08 10 123 8 47
2015-01-09 9 63 10 43
2015-01-10 7 65 14 45
2015-01-11 3 63 11 45
2015-01-12 11 96 13 44
2015-01-13 5 86 17 45
2015-01-14 2 74 16 46
2015-01-15 6 53 16 46
2015-01-16 10 115 14 60
2015-01-17 5 32 12 40
2015-01-18 8 62 14 41
2015-01-19 5 65 17 43
2015-01-20 4 53 21 42
2015-01-21 0 48 19 37
2015-01-22 6 90 17 45
2015-01-23 4 62 31 49
2015-01-24 3 41 17 48
2015-01-25 6 64 19 46
2015-01-26 6 66 13 47
2015-01-27 10 88 18 47
2015-01-28 3 85 10 49
2015-01-29 6 92 12 49
2015-01-30 5 70 11 67
2015-01-31 3 48 14 41
* 2014 2461 21938 4588 110
December 2014 215 2107 549 52
November 2014 197 1812 286 67
October 2014 172 1628 410 60
September 2014 122 1114 280 58
August 2014 75 619 251 50
July 2014 63 577 318 56
2014-07-01 0 5 8 47
2014-07-02 4 31 16 48
2014-07-03 2 23 8 44
2014-07-04 2 3 12 47
2014-07-05 2 12 13 56
2014-07-06 2 22 14 45
2014-07-07 2 25 16 42
2014-07-08 1 12 12 42
2014-07-09 2 23 12 45
2014-07-10 5 18 7 41
2014-07-11 2 25 15 52
2014-07-12 1 14 8 33
2014-07-13 2 20 10 35
2014-07-14 1 33 9 41
2014-07-15 6 48 16 51
2014-07-16 2 27 11 51
2014-07-17 1 9 10 46
2014-07-18 0 5 8 38
2014-07-19 1 1 7 34
2014-07-20 1 9 9 35
2014-07-21 2 11 10 33
2014-07-22 4 13 10 42
2014-07-23 2 16 8 39
2014-07-24 2 23 11 39
2014-07-25 4 35 10 45
2014-07-26 2 25 7 41
2014-07-27 1 7 12 41
2014-07-28 1 11 8 41
2014-07-29 1 21 5 30
2014-07-30 3 22 6 53
2014-07-31 2 28 10 38
June 2014 654 2289 733 61
May 2014 158 1011 490 49
April 2014 130 2321 281 57
March 2014 188 2594 282 110
February 2014 229 2915 334 78
January 2014 258 2951 374 86
* 2013 1171 11341 1091 165
* 2012 1863 11381 918 70
December 2012 111 1080 102 49
2012-12-01 3 21 2 34
2012-12-02 2 22 2 26
2012-12-03 6 39 5 33
2012-12-04 2 36 0 29
2012-12-05 1 39 3 26
2012-12-06 2 23 1 29
2012-12-07 2 21 1 23
2012-12-08 6 29 0 34
2012-12-09 5 43 9 29
2012-12-10 4 41 4 25
2012-12-11 6 64 5 25
2012-12-12 4 60 1 26
2012-12-13 2 37 1 25
2012-12-14 5 45 6 29
2012-12-15 4 42 5 27
2012-12-16 3 35 5 25
2012-12-17 6 58 4 28
2012-12-18 1 38 3 30
2012-12-19 2 24 2 26
2012-12-20 4 30 2 44
2012-12-21 7 45 2 23
2012-12-22 0 18 4 23
2012-12-23 4 31 3 30
2012-12-24 2 24 4 20
2012-12-25 2 18 1 25
2012-12-26 5 30 3 26
2012-12-27 5 30 4 29
2012-12-28 3 29 4 36
2012-12-29 3 27 5 49
2012-12-30 7 43 9 30
2012-12-31 3 38 2 38
November 2012 921 2147 195 53
October 2012 121 978 101 53
September 2012 78 716 61 34
August 2012 61 404 41 29
July 2012 28 203 25 31
June 2012 19 136 16 19
May 2012 27 234 33 44
April 2012 43 355 51 35
2012-04-01 1 4 5 18
2012-04-02 2 17 2 18
2012-04-03 4 24 3 19
2012-04-04 1 9 1 13
2012-04-05 3 11 0 14
2012-04-06 1 5 1 15
2012-04-07 1 1 2 18
2012-04-08 4 16 1 17
2012-04-09 2 24 6 18
2012-04-10 2 11 1 18
2012-04-11 0 19 0 18
2012-04-12 3 24 1 18
2012-04-13 0 10 3 19
2012-04-14 0 9 2 17
2012-04-15 0 3 0 17
2012-04-16 1 5 1 16
2012-04-17 0 9 1 17
2012-04-18 1 7 2 35
2012-04-19 1 8 4 19
2012-04-20 1 7 3 18
2012-04-21 0 18 0 21
2012-04-22 0 4 2 20
2012-04-23 2 16 1 17
2012-04-24 2 12 1 21
2012-04-25 4 13 1 17
2012-04-26 0 14 1 17
2012-04-27 1 10 1 19
2012-04-28 2 11 4 19
2012-04-29 2 17 1 24
2012-04-30 2 17 0 14
March 2012 74 858 44 26
February 2012 146 1674 88 50
January 2012 234 2596 161 70
* 2011 741 7884 698 76
* 2010 444 2717 284 98
December 2010 51 657 81 27
November 2010 39 339 52 25
2010-11-01 1 8 1 14
2010-11-02 3 13 3 14
2010-11-03 3 15 4 16
2010-11-04 5 21 4 25
2010-11-05 1 26 1 17
2010-11-06 2 13 2 12
2010-11-07 2 8 3 14
2010-11-08 1 14 1 16
2010-11-09 0 10 3 16
2010-11-10 2 11 1 15
2010-11-11 1 9 2 13
2010-11-12 1 16 1 15
2010-11-13 1 9 1 13
2010-11-14 0 5 1 19
2010-11-15 0 7 2 14
2010-11-16 2 17 3 14
2010-11-17 1 15 2 14
2010-11-18 1 9 2 18
2010-11-19 0 7 1 14
2010-11-20 0 4 2 15
2010-11-21 0 4 1 16
2010-11-22 1 4 2 15
2010-11-23 2 7 0 14
2010-11-24 1 19 1 14
2010-11-25 0 15 0 18
2010-11-26 1 5 0 12
2010-11-27 1 2 2 18
2010-11-28 0 3 1 20
2010-11-29 2 15 2 18
2010-11-30 4 28 3 19
October 2010 43 332 38 20
September 2010 34 254 23 14
August 2010 9 72 14 14
July 2010 10 60 8 16
June 2010 11 51 4 15
May 2010 8 42 9 12
April 2010 13 94 10 13
March 2010 157 266 11 14
February 2010 23 193 7 98
January 2010 46 357 27 18
* 2009 217 1823 163 20
* 2008 119 553 148 28
December 2008 17 89 7 10
November 2008 15 97 48 10
October 2008 12 82 9 15
September 2008 6 12 10 19
2008-09-01 0 0 0 3
2008-09-02 0 1 1 5
2008-09-03 0 0 0 3
2008-09-04 0 1 0 5
2008-09-05 1 1 0 3
2008-09-06 0 1 0 19
2008-09-07 1 1 1 5
2008-09-08 0 0 0 6
2008-09-09 1 1 2 7
2008-09-10 1 2 0 9
2008-09-11 0 1 1 5
2008-09-12 0 0 1 4
2008-09-13 0 0 0 5
2008-09-14 0 0 0 2
2008-09-15 0 0 0 4
2008-09-16 0 0 0 4
2008-09-17 0 0 0 3
2008-09-18 0 0 0 2
2008-09-19 0 0 0 3
2008-09-20 0 0 0 4
2008-09-21 0 0 0 4
2008-09-22 0 0 0 4
2008-09-23 1 2 2 9
2008-09-24 0 0 0 3
2008-09-25 0 0 0 2
2008-09-26 0 0 0 17
2008-09-27 0 0 0 3
2008-09-28 0 0 1 7
2008-09-29 1 1 1 4
2008-09-30 0 0 0 3
August 2008 2 14 4 9
2008-08-01 1 1 1 3
2008-08-02 0 2 0 4
2008-08-03 0 0 0 4
2008-08-04 0 2 0 6
2008-08-05 0 0 0 4
2008-08-06 0 0 0 3
2008-08-07 0 0 0 3
2008-08-08 0 0 1 3
2008-08-09 0 0 0 3
2008-08-10 0 0 0 3
2008-08-11 1 1 0 3
2008-08-12 0 1 0 4
2008-08-13 0 0 0 3
2008-08-14 0 0 0 4
2008-08-15 0 0 0 3
2008-08-16 0 0 0 3
2008-08-17 0 0 0 3
2008-08-18 0 0 0 5
2008-08-19 0 1 0 2
2008-08-20 0 1 0 4
2008-08-21 0 1 0 4
2008-08-22 0 1 0 3
2008-08-23 0 0 0 3
2008-08-24 0 0 0 5
2008-08-25 0 2 1 5
2008-08-26 0 0 1 9
2008-08-27 0 0 0 4
2008-08-28 0 1 0 4
2008-08-29 0 0 0 3
2008-08-30 0 0 0 6
2008-08-31 0 0 0 3
July 2008 6 21 9 28
June 2008 11 60 20 21
May 2008 19 64 9 7
April 2008 9 40 3 9
March 2008 22 74 29 12